Time;durP1;ratioP1;P1;durP2;ratioP2;P2;SDS_P1;SDS_P2;PMS_P1;PMS_P2;Temp;Humidity;BMP_temperature;BMP_pressure;BME280_temperature;BME280_humidity;BME280_pressure;Samples;Min_cycle;Max_cycle;Signal;HPM_P1;HPM_P2
2021/10/22 00:00:17;;;;;;;10.60;1.73;;;;;;;5.70;96.50;99983.19;5126818;27;20027;-74
2021/10/22 00:02:43;;;;;;;7.53;1.45;;;;;;;5.74;97.41;100007.56;5109693;28;20481;-74
2021/10/22 00:05:10;;;;;;;12.63;1.60;;;;;;;5.74;97.50;100020.81;5110430;28;20047;-75
2021/10/22 00:07:36;;;;;;;8.05;1.58;;;;;;;5.76;97.72;100012.69;5110762;28;20075;-75
2021/10/22 00:10:04;;;;;;;11.60;1.98;;;;;;;5.87;97.71;100015.97;5109601;28;20093;-75
2021/10/22 00:12:29;;;;;;;11.60;1.73;;;;;;;5.86;97.51;100002.88;5126355;27;20027;-75
2021/10/22 00:14:55;;;;;;;12.48;3.05;;;;;;;5.88;97.34;100020.28;5109104;28;20028;-75
2021/10/22 00:17:21;;;;;;;10.32;1.20;;;;;;;5.85;97.12;100017.09;5126262;27;20112;-75
2021/10/22 00:19:47;;;;;;;6.85;1.40;;;;;;;5.87;97.16;100013.31;5110125;28;20058;-75
2021/10/22 00:22:13;;;;;;;6.83;1.13;;;;;;;5.88;97.68;100016.81;5109953;28;20106;-75
2021/10/22 00:24:40;;;;;;;5.05;1.20;;;;;;;6.00;97.82;100030.72;5108862;28;20027;-77
2021/10/22 00:27:06;;;;;;;8.25;1.35;;;;;;;5.95;97.79;100017.06;5109972;28;20039;-76
2021/10/22 00:29:33;;;;;;;10.18;1.40;;;;;;;6.06;98.21;100023.00;5126054;27;20039;-76
2021/10/22 00:31:59;;;;;;;12.13;2.43;;;;;;;5.96;98.39;100003.66;5108890;28;20032;-77
2021/10/22 00:34:25;;;;;;;14.18;1.65;;;;;;;6.01;98.63;100016.47;5109839;28;20118;-77
2021/10/22 00:36:51;;;;;;;9.98;1.70;;;;;;;6.04;98.71;100013.50;5108967;28;20519;-77
2021/10/22 00:39:17;;;;;;;4.38;1.35;;;;;;;6.05;98.83;100021.31;5109932;28;20479;-77
2021/10/22 00:41:43;;;;;;;8.10;1.20;;;;;;;5.97;98.92;100015.09;5108977;28;20031;-77
2021/10/22 00:44:08;;;;;;;12.98;2.25;;;;;;;6.02;98.86;100024.28;5109507;28;20447;-77
2021/10/22 00:46:38;;;;;;;11.52;2.47;;;;;;;6.05;98.79;100023.97;5109967;28;20059;-78
2021/10/22 00:49:08;;;;;;;8.70;1.92;;;;;;;5.98;98.93;100033.50;5126150;27;20110;-77
2021/10/22 00:51:34;;;;;;;13.52;1.95;;;;;;;5.96;98.63;100024.03;5108405;28;20042;-77
2021/10/22 00:53:59;;;;;;;12.20;1.70;;;;;;;5.89;99.07;100015.81;5107725;28;20114;-76
2021/10/22 00:56:25;;;;;;;20.40;2.03;;;;;;;5.89;99.15;100027.25;5108497;28;20036;-77
2021/10/22 00:58:50;;;;;;;18.27;2.17;;;;;;;5.84;99.33;100013.63;5109728;28;20344;-77
2021/10/22 01:01:16;;;;;;;12.43;3.17;;;;;;;5.71;99.64;100010.50;5108779;28;20032;-77
2021/10/22 01:03:41;;;;;;;12.67;2.23;;;;;;;5.81;99.86;100010.47;5109069;28;20108;-78
2021/10/22 01:06:09;;;;;;;10.35;2.60;;;;;;;5.74;99.77;100010.22;5109294;28;20028;-77
2021/10/22 01:08:35;;;;;;;15.13;2.80;;;;;;;5.66;99.84;100002.16;5108436;28;20028;-77
2021/10/22 01:11:01;;;;;;;8.80;1.90;;;;;;;5.73;100.00;100021.78;5109643;28;20364;-78
2021/10/22 01:13:27;;;;;;;;;;;;;;;5.75;100.00;100017.16;5108424;28;20062;-77
2021/10/22 01:15:53;;;;;;;5.32;1.65;;;;;;;5.88;100.00;100011.53;5108365;28;20029;-77
2021/10/22 01:18:18;;;;;;;11.27;1.65;;;;;;;5.86;99.49;100001.06;5108004;28;20131;-77
2021/10/22 01:20:44;;;;;;;8.80;1.52;;;;;;;5.85;99.12;99991.47;5108114;28;20047;-76
2021/10/22 01:23:10;;;;;;;5.97;1.75;;;;;;;5.89;98.75;99986.69;5108895;28;20134;-77
2021/10/22 01:25:35;;;;;;;8.60;1.20;;;;;;;5.84;98.79;99987.13;5108104;28;20034;-77
2021/10/22 01:28:02;;;;;;;11.20;1.87;;;;;;;5.75;99.02;99969.50;5108026;28;20128;-76
2021/10/22 01:30:28;;;;;;;;;;;;;;;5.87;98.94;99992.13;5125554;27;20277;-77
2021/10/22 01:33:08;;;;;;;8.13;1.70;;;;;;;5.89;98.99;99991.97;5108143;27;19922;-77
2021/10/22 01:35:34;;;;;;;5.72;0.75;;;;;;;5.91;98.82;99990.84;5108459;28;20035;-77
2021/10/22 01:38:02;;;;;;;10.57;1.85;;;;;;;6.02;98.39;99999.59;5124694;27;20035;-77
2021/10/22 01:40:28;;;;;;;5.82;1.10;;;;;;;6.01;98.18;99992.63;5123832;27;20510;-78
2021/10/22 01:42:54;;;;;;;5.68;1.25;;;;;;;6.03;98.64;99998.59;5107235;28;20353;-77
2021/10/22 01:45:20;;;;;;;7.25;1.38;;;;;;;6.06;98.30;99998.28;5108279;28;20027;-77
2021/10/22 01:47:46;;;;;;;6.00;0.90;;;;;;;6.13;98.09;100002.84;5107613;28;20526;-77
2021/10/22 01:50:12;;;;;;;5.67;0.73;;;;;;;6.09;97.96;100000.66;5107490;28;20039;-77
2021/10/22 01:52:38;;;;;;;3.25;0.95;;;;;;;6.05;97.65;99984.22;5090664;28;20023;-77
2021/10/22 01:55:04;;;;;;;4.30;1.17;;;;;;;6.10;97.81;99989.88;5106828;28;20034;-77
2021/10/22 01:57:29;;;;;;;;;;;;;;;6.07;98.04;99989.38;5108997;28;20047;-77
2021/10/22 01:59:54;;;;;;;;;;;;;;;6.16;98.23;100003.50;5107947;28;20376;-77
2021/10/22 02:02:20;;;;;;;5.70;1.33;;;;;;;6.14;98.30;99990.44;5106694;28;20432;-77
2021/10/22 02:04:46;;;;;;;4.10;1.30;;;;;;;6.04;98.53;99984.34;5107157;28;20127;-77
2021/10/22 02:07:11;;;;;;;8.10;1.33;;;;;;;6.09;98.76;99996.19;5107345;28;20027;-77
2021/10/22 02:09:37;;;;;;;4.05;0.70;;;;;;;6.06;99.34;99988.56;5124315;27;20031;-77
2021/10/22 02:12:03;;;;;;;7.63;1.67;;;;;;;6.13;100.00;100007.31;5107298;28;20023;-77
2021/10/22 02:14:29;;;;;;;6.38;1.13;;;;;;;6.16;100.00;100004.38;5107913;28;20080;-77
2021/10/22 02:16:55;;;;;;;5.47;0.80;;;;;;;6.18;100.00;99997.09;5124244;28;20031;-77
2021/10/22 02:19:20;;;;;;;6.73;1.10;;;;;;;6.10;100.00;100000.50;5124332;28;20141;-78
2021/10/22 02:21:46;;;;;;;8.10;1.65;;;;;;;6.10;100.00;99994.38;5107442;28;20058;-78
2021/10/22 02:24:12;;;;;;;;;;;;;;;6.10;100.00;100015.56;5107424;28;20100;-77
2021/10/22 02:26:37;;;;;;;;;;;;;;;6.09;100.00;100008.59;5107634;28;19911;-77
2021/10/22 02:29:03;;;;;;;6.87;1.00;;;;;;;6.09;100.00;100009.44;5107185;28;19970;-77
2021/10/22 02:31:28;;;;;;;6.07;1.17;;;;;;;6.05;100.00;100002.75;5108168;28;20070;-77
2021/10/22 02:33:54;;;;;;;8.15;1.63;;;;;;;6.06;100.00;100011.53;5106859;28;20338;-77
2021/10/22 02:36:21;;;;;;;8.25;1.90;;;;;;;6.07;100.00;100010.56;5108080;28;20461;-78
2021/10/22 02:38:46;;;;;;;11.25;1.27;;;;;;;5.98;100.00;99996.41;5108010;28;20073;-77
2021/10/22 02:41:11;;;;;;;7.20;1.80;;;;;;;6.01;100.00;99985.50;5124385;27;20075;-78
2021/10/22 02:43:37;;;;;;;13.43;2.90;;;;;;;6.02;100.00;100003.06;5107692;28;20111;-77
2021/10/22 02:46:03;;;;;;;7.40;1.77;;;;;;;6.10;100.00;100015.56;5090106;28;20324;-77
2021/10/22 02:48:28;;;;;;;9.88;2.25;;;;;;;6.08;100.00;100006.94;5107061;28;20020;-77
2021/10/22 02:50:54;;;;;;;8.40;1.63;;;;;;;6.15;100.00;100005.34;5107115;28;20044;-77
2021/10/22 02:53:20;;;;;;;7.28;2.03;;;;;;;6.12;100.00;99990.56;5107684;28;20045;-77
2021/10/22 02:55:45;;;;;;;8.13;1.23;;;;;;;6.06;100.00;99987.69;5106345;28;20035;-77
2021/10/22 02:58:11;;;;;;;5.90;1.10;;;;;;;6.15;100.00;99996.56;5123931;28;20072;-78
2021/10/22 03:00:36;;;;;;;5.97;1.20;;;;;;;6.07;100.00;99987.56;5089928;28;20035;-76
2021/10/22 03:03:03;;;;;;;5.10;1.10;;;;;;;6.12;100.00;99997.69;5106883;28;20368;-78
2021/10/22 03:05:30;;;;;;;;;;;;;;;6.16;100.00;99995.56;5108050;28;20038;-79
2021/10/22 03:07:57;;;;;;;3.58;0.82;;;;;;;6.10;100.00;99973.16;5124147;27;19955;-79
2021/10/22 03:10:22;;;;;;;5.15;1.25;;;;;;;6.00;100.00;99973.25;5108284;28;20070;-79
2021/10/22 03:12:48;;;;;;;3.67;0.90;;;;;;;6.06;100.00;99982.38;5090416;28;20051;-79
2021/10/22 03:15:13;;;;;;;5.57;0.73;;;;;;;6.04;100.00;99979.06;5111615;28;20360;-78
2021/10/22 03:17:39;;;;;;;4.73;0.70;;;;;;;5.99;100.00;99976.03;5111080;28;20408;-78
2021/10/22 03:20:05;;;;;;;2.33;0.67;;;;;;;6.06;100.00;100003.59;5110733;28;20293;-78
2021/10/22 03:22:31;;;;;;;;;;;;;;;6.03;100.00;99980.06;5111086;28;20055;-76
2021/10/22 03:24:56;;;;;;;;;;;;;;;5.94;100.00;99965.88;5110516;28;20010;-76
2021/10/22 03:27:23;;;;;;;1.52;0.75;;;;;;;5.93;100.00;99975.63;5110417;28;19927;-76
2021/10/22 03:29:49;;;;;;;8.02;2.05;;;;;;;5.75;100.00;99977.44;5110466;28;20039;-78
2021/10/22 03:32:15;;;;;;;5.90;1.00;;;;;;;5.76;100.00;99979.13;5110323;28;20027;-79
2021/10/22 03:34:40;;;;;;;5.93;0.90;;;;;;;5.75;100.00;99980.09;5109950;28;20751;-77
2021/10/22 03:37:09;;;;;;;3.83;0.80;;;;;;;5.74;100.00;99975.78;5109796;28;20088;-78
2021/10/22 03:39:35;;;;;;;7.13;0.93;;;;;;;5.76;100.00;99999.44;5110739;28;20031;-75
2021/10/22 03:42:00;;;;;;;6.80;1.17;;;;;;;5.77;100.00;99994.00;5109710;28;20062;-73
2021/10/22 03:44:26;;;;;;;3.77;1.00;;;;;;;5.72;100.00;99991.81;5126742;27;20127;-73
2021/10/22 03:46:51;;;;;;;2.87;1.43;;;;;;;5.83;100.00;100009.31;5126699;27;20645;-73
2021/10/22 03:49:17;;;;;;;3.90;1.30;;;;;;;5.82;100.00;100010.28;5110379;28;20030;-73
2021/10/22 03:51:43;;;;;;;7.73;1.00;;;;;;;5.81;100.00;99997.22;5110678;28;20019;-73
2021/10/22 03:54:08;;;;;;;6.03;1.15;;;;;;;5.80;100.00;99999.00;5109840;28;20239;-73
2021/10/22 03:56:34;;;;;;;8.40;1.20;;;;;;;5.70;100.00;100004.38;5109772;28;20096;-73
2021/10/22 03:59:00;;;;;;;8.80;1.37;;;;;;;5.77;100.00;100017.84;5109501;28;20957;-73
2021/10/22 04:01:25;;;;;;;9.02;1.30;;;;;;;5.68;100.00;100026.69;5110865;28;20289;-72
2021/10/22 04:03:51;;;;;;;6.43;1.70;;;;;;;5.63;100.00;100008.59;5109308;28;20036;-73
2021/10/22 04:06:16;;;;;;;14.53;1.73;;;;;;;5.70;100.00;100006.19;5110285;28;20066;-73
2021/10/22 04:08:42;;;;;;;8.60;1.73;;;;;;;5.67;100.00;100020.56;5110329;28;20266;-72
2021/10/22 04:11:08;;;;;;;10.60;2.27;;;;;;;5.64;100.00;100022.66;5092382;28;20054;-73
2021/10/22 04:13:34;;;;;;;9.73;2.30;;;;;;;5.66;100.00;100010.09;5109997;28;20280;-72
2021/10/22 04:15:59;;;;;;;12.88;2.10;;;;;;;5.63;100.00;100013.06;5110181;28;20453;-73
2021/10/22 04:18:26;;;;;;;8.52;1.83;;;;;;;5.69;100.00;100017.78;5110092;28;20066;-73
2021/10/22 04:20:52;;;;;;;8.65;2.38;;;;;;;5.58;100.00;100020.63;5109006;28;20058;-73
2021/10/22 04:23:18;;;;;;;9.27;1.73;;;;;;;5.61;100.00;100015.84;5108735;28;20046;-73
2021/10/22 04:25:44;;;;;;;11.77;2.90;;;;;;;5.60;100.00;100013.38;5109191;28;20031;-74
2021/10/22 04:28:09;;;;;;;14.27;5.10;;;;;;;5.57;100.00;100003.06;5109977;27;20023;-73
2021/10/22 04:30:36;;;;;;;14.43;3.38;;;;;;;5.59;100.00;99998.44;5108929;28;20036;-73
2021/10/22 04:33:02;;;;;;;16.08;3.17;;;;;;;5.57;100.00;99992.47;5109786;27;20558;-73
2021/10/22 04:35:28;;;;;;;12.52;2.20;;;;;;;5.60;100.00;100010.72;5108527;28;20046;-73
2021/10/22 04:40:33;;;;;;;5.97;1.50;;;;;;;5.48;100.00;99963.25;5125873;27;20039;-73
2021/10/22 04:43:05;;;;;;;12.45;2.00;;;;;;;5.46;100.00;99938.75;5109730;28;20368;-73
2021/10/22 04:45:33;;;;;;;14.05;2.42;;;;;;;5.40;100.00;99936.69;5109385;28;20457;-73
2021/10/22 04:48:00;;;;;;;9.38;2.20;;;;;;;5.48;100.00;99954.50;5109526;28;20051;-73
2021/10/22 04:50:27;;;;;;;13.80;2.67;;;;;;;5.59;100.00;99961.38;5109552;28;20376;-73
2021/10/22 04:52:55;;;;;;;12.43;2.42;;;;;;;5.53;100.00;99938.16;5108525;28;20031;-73
2021/10/22 04:55:22;;;;;;;15.43;1.90;;;;;;;5.52;100.00;99918.78;5107896;28;20043;-73
2021/10/22 04:57:49;;;;;;;15.18;2.20;;;;;;;5.47;100.00;99919.22;5109184;28;20047;-72
2021/10/22 05:00:14;;;;;;;;;;;;;;;5.51;100.00;99903.88;5125840;27;20043;-72
2021/10/22 05:02:40;;;;;;;;;;;;;;;5.44;100.00;99901.00;5108627;28;20400;-73
2021/10/22 05:05:05;;;;;;;6.97;2.03;;;;;;;5.41;100.00;99864.25;5107919;28;19911;-72
2021/10/22 05:07:32;;;;;;;8.32;1.80;;;;;;;5.47;100.00;99871.56;5108428;28;20074;-72
2021/10/22 05:09:57;;;;;;;6.05;1.60;;;;;;;5.45;100.00;99852.34;5109270;28;20036;-72
2021/10/22 05:12:24;;;;;;;11.00;2.37;;;;;;;5.51;100.00;99853.56;5109196;28;20069;-72
2021/10/22 05:14:49;;;;;;;14.32;2.65;;;;;;;5.47;100.00;99854.84;5124852;27;20031;-73
2021/10/22 05:17:15;;;;;;;13.50;2.17;;;;;;;5.44;100.00;99850.69;5125023;27;20039;-71
2021/10/22 05:19:40;;;;;;;20.00;4.23;;;;;;;5.40;100.00;99844.03;5108121;28;20535;-71
2021/10/22 05:22:06;;;;;;;12.17;2.43;;;;;;;5.37;100.00;99844.34;5109345;28;20027;-72
2021/10/22 05:24:31;;;;;;;14.47;1.87;;;;;;;5.46;100.00;99864.63;5107932;28;20276;-72
2021/10/22 05:26:57;;;;;;;12.03;2.90;;;;;;;5.47;100.00;99876.84;5108034;28;20043;-72
2021/10/22 05:29:22;;;;;;;9.90;1.65;;;;;;;5.41;100.00;99874.84;5108520;28;20031;-72
2021/10/22 05:31:47;;;;;;;11.63;1.80;;;;;;;5.40;100.00;99865.22;5108563;28;20032;-72
2021/10/22 05:34:14;;;;;;;9.68;1.80;;;;;;;5.43;100.00;99874.66;5107278;28;20066;-72
2021/10/22 05:36:39;;;;;;;12.77;2.40;;;;;;;5.42;100.00;99854.47;5108482;28;20020;-73
2021/10/22 05:39:05;;;;;;;6.63;1.63;;;;;;;5.44;100.00;99855.16;5107354;28;20040;-73
2021/10/22 05:41:30;;;;;;;21.70;2.87;;;;;;;5.43;100.00;99843.75;5124507;27;20854;-72
2021/10/22 05:43:55;;;;;;;8.03;1.77;;;;;;;5.41;100.00;99845.72;5124080;27;20039;-72
2021/10/22 05:46:21;;;;;;;13.73;2.53;;;;;;;5.40;100.00;99851.97;5108298;28;20047;-72
2021/10/22 05:48:47;;;;;;;9.23;1.90;;;;;;;5.38;100.00;99859.22;5108254;28;20284;-72
2021/10/22 05:51:13;;;;;;;10.52;3.45;;;;;;;5.43;100.00;99867.56;5107245;28;20071;-72
2021/10/22 05:53:40;;;;;;;7.82;3.20;;;;;;;5.36;100.00;99869.16;5107627;28;20522;-72
2021/10/22 05:56:09;;;;;;;9.73;3.17;;;;;;;5.39;100.00;99884.72;5108100;28;20050;-73
2021/10/22 05:58:35;;;;;;;23.88;3.17;;;;;;;5.37;100.00;99865.53;5106946;28;20368;-72
2021/10/22 06:01:02;;;;;;;13.25;1.90;;;;;;;5.35;100.00;99872.78;5108496;28;20019;-71
2021/10/22 06:03:28;;;;;;;15.82;3.65;;;;;;;5.35;100.00;99862.19;5107712;28;20039;-72
2021/10/22 06:05:54;;;;;;;11.85;2.22;;;;;;;5.38;100.00;99859.22;5107960;28;20124;-72
2021/10/22 06:08:21;;;;;;;12.35;2.30;;;;;;;5.41;100.00;99877.47;5124045;27;20051;-72
2021/10/22 06:10:48;;;;;;;17.70;3.40;;;;;;;5.40;100.00;99875.78;5124031;27;20042;-71
2021/10/22 06:13:15;;;;;;;9.80;2.25;;;;;;;5.42;100.00;99865.06;5124000;27;20024;-72
2021/10/22 06:15:40;;;;;;;13.35;4.43;;;;;;;5.42;100.00;99871.19;5107437;28;20104;-72
2021/10/22 06:18:06;;;;;;;11.77;2.15;;;;;;;5.40;100.00;99865.22;5107144;28;20473;-72
2021/10/22 06:20:43;;;;;;;12.02;2.42;;;;;;;5.40;100.00;99851.97;5089882;28;20491;-72
2021/10/22 06:25:42;;;;;;;13.63;2.90;;;;;;;5.42;100.00;99863.25;5123908;28;20126;-72
2021/10/22 06:28:10;;;;;;;14.52;3.17;;;;;;;5.41;100.00;99853.66;5090088;28;20027;-72
2021/10/22 06:30:36;;;;;;;13.93;2.45;;;;;;;5.49;100.00;99850.25;5124251;27;20027;-72
2021/10/22 06:33:02;;;;;;;24.08;3.28;;;;;;;5.53;100.00;99848.13;5107838;28;20044;-72
2021/10/22 06:35:27;;;;;;;13.10;2.90;;;;;;;5.55;100.00;99849.66;5107369;28;20031;-73
2021/10/22 06:37:54;;;;;;;12.07;2.47;;;;;;;5.59;100.00;99837.75;5107574;28;20349;-73
2021/10/22 06:40:21;;;;;;;13.50;3.03;;;;;;;5.58;100.00;99851.16;5106400;28;20064;-72
2021/10/22 06:42:47;;;;;;;16.33;2.95;;;;;;;5.63;100.00;99848.88;5123418;27;20035;-73
2021/10/22 06:45:13;;;;;;;14.23;2.65;;;;;;;5.70;100.00;99849.94;5105976;28;20043;-73
2021/10/22 06:47:38;;;;;;;10.50;2.15;;;;;;;5.71;100.00;99841.00;5123667;27;20046;-73
2021/10/22 06:50:04;;;;;;;8.47;1.97;;;;;;;5.73;100.00;99833.72;5108291;28;20024;-73
2021/10/22 06:52:30;;;;;;;11.98;3.75;;;;;;;5.72;100.00;99810.88;5109734;28;20040;-73
2021/10/22 06:54:56;;;;;;;15.65;4.05;;;;;;;5.82;100.00;99801.03;5126839;27;20031;-73
2021/10/22 06:57:22;;;;;;;16.83;3.65;;;;;;;5.86;100.00;99789.13;5110162;28;20070;-73
2021/10/22 06:59:48;;;;;;;17.65;3.17;;;;;;;5.87;100.00;99772.25;5111654;28;20555;-72
2021/10/22 07:02:13;;;;;;;9.30;2.60;;;;;;;5.81;100.00;99764.09;5111072;28;20031;-72
2021/10/22 07:04:47;;;;;;;14.30;2.53;;;;;;;5.93;100.00;99766.31;5110842;28;20466;-73
2021/10/22 07:07:16;;;;;;;9.85;2.75;;;;;;;5.97;100.00;99750.13;5111038;28;20067;-73
2021/10/22 07:09:46;;;;;;;13.20;2.58;;;;;;;5.93;100.00;99753.06;5111020;28;20525;-72
2021/10/22 07:12:12;;;;;;;8.18;2.20;;;;;;;5.96;100.00;99737.88;5109867;28;20104;-72
2021/10/22 07:14:47;;;;;;;12.23;2.75;;;;;;;6.05;100.00;99742.25;5110469;28;20028;-73
2021/10/22 07:17:13;;;;;;;8.03;2.57;;;;;;;6.07;100.00;99753.53;5126922;27;20028;-73
2021/10/22 07:19:39;;;;;;;16.27;2.40;;;;;;;6.12;100.00;99754.69;5110703;28;20101;-73
2021/10/22 07:22:07;;;;;;;12.88;3.40;;;;;;;6.10;100.00;99766.44;5109735;28;20349;-73
2021/10/22 07:24:32;;;;;;;24.13;4.00;;;;;;;6.13;100.00;99776.72;5126624;27;20027;-73
2021/10/22 07:27:01;;;;;;;10.98;2.17;;;;;;;6.25;100.00;99778.13;5110553;28;20031;-73
2021/10/22 07:29:28;;;;;;;12.18;2.67;;;;;;;6.28;100.00;99763.72;5126785;27;20432;-73
2021/10/22 07:31:54;;;;;;;7.28;2.10;;;;;;;6.38;100.00;99767.09;5109581;28;20410;-73
2021/10/22 07:34:21;;;;;;;13.38;2.38;;;;;;;6.33;100.00;99750.81;5110314;27;20059;-73
2021/10/22 07:36:49;;;;;;;6.85;2.17;;;;;;;6.33;100.00;99729.63;5110601;28;20364;-73
2021/10/22 07:39:16;;;;;;;8.73;2.15;;;;;;;6.26;100.00;99724.13;5109482;28;20099;-72
2021/10/22 07:41:42;;;;;;;11.18;2.90;;;;;;;6.31;100.00;99708.56;5109210;28;20045;-72
2021/10/22 07:44:07;;;;;;;18.65;2.90;;;;;;;6.37;100.00;99725.66;5110148;28;20043;-72
2021/10/22 07:46:33;;;;;;;11.37;2.53;;;;;;;6.40;100.00;99687.41;5110257;28;20027;-72
2021/10/22 07:48:59;;;;;;;10.00;2.70;;;;;;;6.25;100.00;99711.88;5110420;28;20321;-73
2021/10/22 07:51:24;;;;;;;16.20;4.10;;;;;;;6.24;100.00;99710.19;5110398;28;20038;-74
2021/10/22 07:53:50;;;;;;;23.15;3.47;;;;;;;6.32;100.00;99734.09;5109732;28;20285;-73
2021/10/22 07:56:17;;;;;;;10.65;2.97;;;;;;;6.34;100.00;99742.72;5109261;28;20052;-73
2021/10/22 07:58:43;;;;;;;13.80;3.35;;;;;;;6.31;100.00;99752.81;5125781;27;20052;-73
2021/10/22 08:01:09;;;;;;;8.13;1.80;;;;;;;6.26;100.00;99789.56;5125105;27;20028;-73
2021/10/22 08:03:35;;;;;;;12.30;2.80;;;;;;;6.36;100.00;99808.00;5109712;28;20125;-73
2021/10/22 08:06:05;;;;;;;10.15;2.60;;;;;;;6.38;100.00;99843.97;5109021;28;20043;-73
2021/10/22 08:08:30;;;;;;;14.30;4.05;;;;;;;6.15;100.00;99848.13;5109750;28;20043;-73
2021/10/22 08:10:56;;;;;;;6.90;1.30;;;;;;;6.03;100.00;99824.53;5109912;28;20406;-73
2021/10/22 08:13:22;;;;;;;5.73;0.60;;;;;;;5.79;100.00;99830.47;5109657;27;20441;-73
2021/10/22 08:15:47;;;;;;;;;;;;;;;5.62;100.00;99805.69;5110025;28;20117;-73
2021/10/22 08:18:13;;;;;;;;;;;;;;;5.42;100.00;99804.19;5109846;28;19919;-73
2021/10/22 08:21:19;;;;;;;4.95;0.93;;;;;;;5.35;100.00;99805.78;5109666;28;19911;-73
2021/10/22 08:23:33;;;;;;;5.68;0.60;;;;;;;5.36;100.00;99816.22;5105234;28;20377;-73
2021/10/22 08:25:59;;;;;;;3.80;0.43;;;;;;;5.23;100.00;99815.75;5109648;28;20067;-73
2021/10/22 08:28:24;;;;;;;3.88;0.73;;;;;;;5.24;100.00;99838.56;5109544;28;20038;-73
2021/10/22 08:30:55;;;;;;;5.53;0.60;;;;;;;5.09;100.00;99830.34;5108738;28;20493;-73
2021/10/22 08:33:23;;;;;;;9.35;1.80;;;;;;;5.02;100.00;99811.56;5109053;28;20078;-73
2021/10/22 08:35:48;;;;;;;5.10;0.85;;;;;;;4.85;100.00;99781.47;5108475;28;20040;-73
2021/10/22 08:38:14;;;;;;;2.00;0.70;;;;;;;5.04;100.00;99804.31;5108255;28;20028;-72
2021/10/22 08:40:39;;;;;;;3.85;0.68;;;;;;;5.20;100.00;99826.66;5108427;28;20108;-73
2021/10/22 08:43:05;;;;;;;3.20;0.63;;;;;;;5.26;100.00;99810.16;5125133;27;20040;-72
2021/10/22 08:45:32;;;;;;;5.45;0.88;;;;;;;5.36;100.00;99810.94;5108486;28;20289;-73
2021/10/22 08:47:58;;;;;;;4.05;1.45;;;;;;;5.28;100.00;99802.91;5090765;28;20038;-73
2021/10/22 08:50:23;;;;;;;3.80;0.77;;;;;;;5.34;100.00;99812.88;5108190;28;20043;-73
2021/10/22 08:52:51;;;;;;;2.75;0.63;;;;;;;5.38;100.00;99824.00;5090817;28;20035;-72
2021/10/22 08:55:17;;;;;;;1.65;0.60;;;;;;;5.42;100.00;99833.31;5124224;27;20127;-73
2021/10/22 08:57:44;;;;;;;;;;;;;;;5.52;100.00;99857.03;5109007;28;20114;-73
2021/10/22 09:00:14;;;;;;;4.82;0.50;;;;;;;5.46;100.00;99875.22;5108707;28;19912;-73
2021/10/22 09:02:41;;;;;;;3.42;0.40;;;;;;;5.40;100.00;99865.22;5107096;28;20142;-73
2021/10/22 09:05:26;;;;;;;10.00;0.73;;;;;;;5.46;100.00;99872.56;5107278;28;20050;-73
2021/10/22 09:07:54;;;;;;;2.85;0.52;;;;;;;5.45;100.00;99873.53;5107593;28;20066;-72
2021/10/22 09:10:21;;;;;;;6.07;0.70;;;;;;;5.50;100.00;99871.28;5108658;28;20093;-73
2021/10/22 09:12:51;;;;;;;4.68;0.80;;;;;;;5.56;100.00;99893.66;5124270;27;20043;-74
2021/10/22 09:15:40;;;;;;;7.78;0.90;;;;;;;5.49;100.00;99864.31;5107092;28;20036;-72
2021/10/22 09:18:25;;;;;;;9.95;2.10;;;;;;;5.59;100.00;99861.56;5089866;28;20879;-72
2021/10/22 09:21:02;;;;;;;4.22;1.08;;;;;;;5.66;100.00;99878.53;5123903;27;20039;-73
2021/10/22 09:23:27;;;;;;;7.43;1.50;;;;;;;5.74;100.00;99896.31;5124178;27;20464;-72
2021/10/22 09:26:15;;;;;;;6.30;1.03;;;;;;;5.87;100.00;99891.44;5124393;27;20032;-73
2021/10/22 09:28:41;;;;;;;15.02;2.20;;;;;;;5.98;100.00;99889.59;5107013;28;20035;-72
2021/10/22 09:31:14;;;;;;;9.10;1.80;;;;;;;6.19;100.00;99913.94;5106849;28;20036;-72
2021/10/22 09:33:53;;;;;;;1.80;0.63;;;;;;;6.22;100.00;99903.00;5106870;28;20035;-73
2021/10/22 09:36:33;;;;;;;7.57;1.00;;;;;;;6.30;100.00;99908.38;5107859;28;20042;-73
2021/10/22 09:39:05;;;;;;;13.05;2.03;;;;;;;6.40;100.00;99918.06;5123792;27;20028;-73
2021/10/22 09:41:30;;;;;;;4.45;1.40;;;;;;;6.34;100.00;99907.09;5122169;27;20097;-73
2021/10/22 09:43:56;;;;;;;3.78;1.13;;;;;;;6.31;100.00;99917.16;5105221;28;20047;-73
2021/10/22 09:46:23;;;;;;;7.70;1.13;;;;;;;6.39;100.00;99922.53;5105895;28;20027;-73
2021/10/22 09:48:56;;;;;;;9.88;1.70;;;;;;;6.45;100.00;99942.28;5105958;28;20295;-73
2021/10/22 09:51:30;;;;;;;8.48;2.58;;;;;;;6.65;100.00;99956.16;5121973;27;20031;-73
2021/10/22 09:54:03;;;;;;;10.50;1.02;;;;;;;6.44;100.00;99914.09;5104819;28;20074;-73
2021/10/22 09:56:29;;;;;;;6.68;0.85;;;;;;;6.38;100.00;99907.59;5107086;28;20035;-72
2021/10/22 09:59:03;;;;;;;20.45;2.65;;;;;;;6.43;100.00;99884.09;5107817;28;20028;-73
2021/10/22 10:01:44;;;;;;;6.63;1.30;;;;;;;6.59;100.00;99898.44;5107746;28;20464;-73
2021/10/22 10:04:13;;;;;;;10.43;1.00;;;;;;;6.51;100.00;99875.38;5107396;28;20074;-73
2021/10/22 10:06:40;;;;;;;5.28;1.65;;;;;;;6.40;100.00;99851.78;5107858;27;20049;-74
2021/10/22 10:09:08;;;;;;;12.63;1.92;;;;;;;6.53;100.00;99868.06;5107785;28;20100;-73
2021/10/22 10:11:38;;;;;;;6.20;1.10;;;;;;;6.66;100.00;99879.09;5106674;28;20027;-72
2021/10/22 10:14:05;;;;;;;13.23;0.98;;;;;;;6.81;100.00;99849.31;5107702;28;20039;-73
2021/10/22 10:16:33;;;;;;;5.43;1.20;;;;;;;6.93;100.00;99863.94;5107375;28;20035;-73
2021/10/22 10:19:06;;;;;;;5.15;0.80;;;;;;;6.95;100.00;99861.94;5106254;28;20036;-73
2021/10/22 10:21:40;;;;;;;5.05;1.17;;;;;;;6.82;100.00;99845.69;5123606;27;20369;-73
2021/10/22 10:24:08;;;;;;;7.00;1.33;;;;;;;6.79;100.00;99833.56;5122610;27;20098;-72
2021/10/22 10:26:35;;;;;;;11.55;1.70;;;;;;;6.94;100.00;99849.69;5107538;28;20019;-72
2021/10/22 10:29:04;;;;;;;8.57;1.17;;;;;;;6.83;100.00;99842.00;5106475;28;20459;-73
2021/10/22 10:31:45;;;;;;;3.47;1.10;;;;;;;6.64;100.00;99833.31;5107463;28;20031;-72
2021/10/22 10:34:26;;;;;;;3.80;0.63;;;;;;;6.51;100.00;99839.06;5107155;28;20035;-73
2021/10/22 10:36:54;;;;;;;10.23;1.77;;;;;;;6.42;100.00;99831.25;5123519;27;20035;-73
2021/10/22 10:39:41;;;;;;;3.78;0.90;;;;;;;6.36;100.00;99835.34;5106389;28;20349;-73
2021/10/22 10:42:38;;;;;;;6.60;1.80;;;;;;;6.30;100.00;99817.44;5106352;28;20133;-73
2021/10/22 10:45:25;;;;;;;2.83;0.50;;;;;;;6.35;100.00;99836.34;5105893;28;20450;-73
2021/10/22 10:47:52;;;;;;;9.85;2.90;;;;;;;6.28;100.00;99848.56;5106542;28;20122;-73
2021/10/22 10:50:22;;;;;;;1.98;0.47;;;;;;;6.19;100.00;99845.03;5106291;28;20032;-73
2021/10/22 10:52:49;;;;;;;6.70;1.92;;;;;;;6.21;100.00;99848.34;5106195;28;20038;-73
2021/10/22 10:55:29;;;;;;;3.60;0.45;;;;;;;6.25;100.00;99848.84;5122835;28;20455;-73
2021/10/22 10:58:16;;;;;;;2.55;0.32;;;;;;;6.24;100.00;99845.38;5107074;28;20437;-73
2021/10/22 11:00:45;;;;;;;3.78;0.73;;;;;;;6.24;100.00;99866.59;5106101;28;20470;-74
2021/10/22 11:03:15;;;;;;;6.80;1.17;;;;;;;6.32;100.00;99877.25;5123044;27;20046;-74
2021/10/22 11:05:44;;;;;;;4.40;0.60;;;;;;;6.39;100.00;99898.69;5123157;28;20036;-74
2021/10/22 11:08:15;;;;;;;3.85;1.15;;;;;;;6.40;100.00;99910.09;5107244;28;20345;-73
2021/10/22 11:10:57;;;;;;;5.90;1.23;;;;;;;6.59;100.00;99931.09;5108223;28;20839;-74
2021/10/22 11:13:23;;;;;;;5.47;0.93;;;;;;;6.51;100.00;99939.84;5106984;28;20040;-73
2021/10/22 11:15:50;;;;;;;5.10;0.60;;;;;;;6.53;100.00;99935.22;5090282;28;20019;-74
2021/10/22 11:18:18;;;;;;;9.95;1.20;;;;;;;6.61;100.00;99945.03;5106932;28;20043;-74
2021/10/22 11:20:43;;;;;;;3.55;1.23;;;;;;;6.60;100.00;99940.72;5107028;28;20042;-74
2021/10/22 11:23:13;;;;;;;13.90;2.63;;;;;;;6.49;100.00;99904.69;5124159;28;20954;-74
2021/10/22 11:25:40;;;;;;;6.63;1.88;;;;;;;6.45;100.00;99905.16;5107842;28;20031;-74
2021/10/22 11:28:10;;;;;;;2.65;1.05;;;;;;;6.43;100.00;99904.47;5107106;28;20066;-74
2021/10/22 11:30:35;;;;;;;7.32;1.60;;;;;;;6.74;100.00;99924.25;5124128;28;20627;-74
2021/10/22 11:33:02;;;;;;;3.10;0.73;;;;;;;7.08;100.00;99922.56;5124288;27;20032;-74
2021/10/22 11:35:29;;;;;;;5.75;0.70;;;;;;;7.55;100.00;99928.16;5109673;28;20448;-74
2021/10/22 11:38:04;;;;;;;2.38;1.05;;;;;;;7.86;100.00;99930.22;5111462;28;20024;-74
2021/10/22 11:40:30;;;;;;;2.67;0.80;;;;;;;7.76;100.00;99922.41;5110105;28;20038;-75